Terminal Aerodrome Forecast
Issued by NWS Cleveland, OH

Home | Current Version | Previous Version | Text Only | Print | Product List | Glossary On
Versions: 1 2 3 4 5 6 7 8 9 10 11 12 13 14 15 16
834
FTUS41 KCLE 111133
TAFCAK
TAF
KCAK 111133Z 1112/1212 16008KT 4SM -SN OVC035
      TEMPO 1112/1116 2SM -SN OVC025
     FM111600 15010KT 3SM -SN OVC025
     FM112100 15010G20KT 2SM -SN OVC015
     FM120200 18010G20KT 3SM -RASN OVC008
     FM120600 20010KT 6SM -RA OVC008=

USA.gov is the U.S. government's official web portal to all federal, state and local government web resources and services.